Map

Track Data

SID SEASON NUMBER BASIN SUBBASIN NAME ISO_TIME NATURE LAT LON WMO_WIND WMO_PRES WMO_AGENCY TRACK_TYPE DIST2LAND LANDFALL IFLAG USA_AGENCY USA_ATCF_ID USA_LAT USA_LON USA_RECORD USA_STATUS USA_WIND USA_PRES USA_SSHS USA_R34_NE USA_R34_SE USA_R34_SW USA_R34_NW USA_R50_NE USA_R50_SE USA_R50_SW USA_R50_NW USA_R64_NE USA_R64_SE USA_R64_SW USA_R64_NW USA_POCI USA_ROCI USA_RMW USA_EYE TOKYO_LAT TOKYO_LON TOKYO_GRADE TOKYO_WIND TOKYO_PRES TOKYO_R50_DIR TOKYO_R50_LONG TOKYO_R50_SHORT TOKYO_R30_DIR TOKYO_R30_LONG TOKYO_R30_SHORT TOKYO_LAND CMA_LAT CMA_LON CMA_CAT CMA_WIND CMA_PRES HKO_LAT HKO_LON HKO_CAT HKO_WIND HKO_PRES NEWDELHI_LAT NEWDELHI_LON NEWDELHI_GRADE NEWDELHI_WIND NEWDELHI_PRES NEWDELHI_CI NEWDELHI_DP NEWDELHI_POCI REUNION_LAT REUNION_LON REUNION_TYPE REUNION_WIND REUNION_PRES REUNION_TNUM REUNION_CI REUNION_RMW REUNION_R34_NE REUNION_R34_SE REUNION_R34_SW REUNION_R34_NW REUNION_R50_NE REUNION_R50_SE REUNION_R50_SW REUNION_R50_NW REUNION_R64_NE REUNION_R64_SE REUNION_R64_SW REUNION_R64_NW BOM_LAT BOM_LON BOM_TYPE BOM_WIND BOM_PRES BOM_TNUM BOM_CI BOM_RMW BOM_R34_NE BOM_R34_SE BOM_R34_SW BOM_R34_NW BOM_R50_NE BOM_R50_SE BOM_R50_SW BOM_R50_NW BOM_R64_NE BOM_R64_SE BOM_R64_SW BOM_R64_NW BOM_ROCI BOM_POCI BOM_EYE BOM_POS_METHOD BOM_PRES_METHOD NADI_LAT NADI_LON NADI_CAT NADI_WIND NADI_PRES WELLINGTON_LAT WELLINGTON_LON WELLINGTON_WIND WELLINGTON_PRES DS824_LAT DS824_LON DS824_STAGE DS824_WIND DS824_PRES TD9636_LAT TD9636_LON TD9636_STAGE TD9636_WIND TD9636_PRES TD9635_LAT TD9635_LON TD9635_WIND TD9635_PRES TD9635_ROCI NEUMANN_LAT NEUMANN_LON NEUMANN_CLASS NEUMANN_WIND NEUMANN_PRES MLC_LAT MLC_LON MLC_CLASS MLC_WIND MLC_PRES USA_GUST BOM_GUST BOM_GUST_PER REUNION_GUST REUNION_GUST_PER USA_SEAHGT USA_SEARAD_NE USA_SEARAD_SE USA_SEARAD_SW USA_SEARAD_NW STORM_SPEED STORM_DIR
1996025S14125 1996 6 SI WA ISOBEL 1996-01-25 00:00:00 TS -14.2000 124.900 main 55 55 O___________O_ jtwc_sh SH111996 -14.2000 124.900 15 -1 -14.2000 124.900 TC 15 3 289
1996025S14125 1996 6 SI WA ISOBEL 1996-01-25 03:00:00 TS -14.1475 124.742 main 77 77 P___________P_ SH111996 -14.1475 124.742 15 -1 -14.1475 124.742 TC 15 3 289
1996025S14125 1996 6 SI WA ISOBEL 1996-01-25 06:00:00 TS -14.1000 124.600 main 85 85 O___________O_ jtwc_sh SH111996 -14.1000 124.600 15 -1 -14.1000 124.600 TC 15 3 290
1996025S14125 1996 6 SI WA ISOBEL 1996-01-25 09:00:00 TS -14.0575 124.485 main 93 93 P___________P_ SH111996 -14.0575 124.485 15 -1 -14.0575 124.485 TC 15 2 297
1996025S14125 1996 6 SI WA ISOBEL 1996-01-25 12:00:00 TS -14.0000 124.400 main 109 109 O___________O_ jtwc_sh SH111996 -14.0000 124.400 15 -1 -14.0000 124.400 TC 15 2 318
1996025S14125 1996 6 SI WA ISOBEL 1996-01-25 15:00:00 TS -13.9075 124.343 main 124 124 P___________P_ SH111996 -13.9075 124.343 15 -1 -13.9075 124.343 TC 15 2 333
1996025S14125 1996 6 SI WA ISOBEL 1996-01-25 18:00:00 TS -13.8000 124.300 main 132 132 O___________O_ jtwc_sh SH111996 -13.8000 124.300 15 -1 -13.8000 124.300 TC 15 2 337
1996025S14125 1996 6 SI WA ISOBEL 1996-01-25 21:00:00 TS -13.7075 124.258 main 139 139 P___________P_ SH111996 -13.7075 124.258 15 -1 -13.7075 124.258 TC 15 2 333
1996025S14125 1996 6 SI WA ISOBEL 1996-01-26 00:00:00 TS -13.6000 124.200 main 155 155 O___________O_ jtwc_sh SH111996 -13.6000 124.200 15 -1 -13.6000 124.200 TC 15 3 328
1996025S14125 1996 6 SI WA ISOBEL 1996-01-26 03:00:00 TS -13.4575 124.100 main 171 171 P___________P_ SH111996 -13.4575 124.100 15 -1 -13.4575 124.100 TC 15 4 327
1996025S14125 1996 6 SI WA ISOBEL 1996-01-26 06:00:00 TS -13.3000 124.000 main 194 194 O___________O_ jtwc_sh SH111996 -13.3000 124.000 15 -1 -13.3000 124.000 TC 15 4 334
1996025S14125 1996 6 SI WA ISOBEL 1996-01-26 09:00:00 TS -13.1425 123.943 main 218 218 P___________P_ SH111996 -13.1425 123.943 15 -1 -13.1425 123.943 TC 15 3 343
1996025S14125 1996 6 SI WA ISOBEL 1996-01-26 12:00:00 TS -13.0000 123.900 main 227 227 O___________O_ jtwc_sh SH111996 -13.0000 123.900 15 -1 -13.0000 123.900 TC 15 3 342
1996025S14125 1996 6 SI WA ISOBEL 1996-01-26 15:00:00 TS -12.8925 123.858 main 236 236 P___________P_ SH111996 -12.8925 123.858 15 -1 -12.8925 123.858 TC 15 2 333
1996025S14125 1996 6 SI WA ISOBEL 1996-01-26 18:00:00 TS -12.8000 123.800 main 252 252 O___________O_ jtwc_sh SH111996 -12.8000 123.800 15 -1 -12.8000 123.800 TC 15 2 326
1996025S14125 1996 6 SI WA ISOBEL 1996-01-26 21:00:00 TS -12.6925 123.723 main 257 246 P___________P_ SH111996 -12.6925 123.723 15 -1 -12.6925 123.723 TC 15 3 316
1996025S14125 1996 6 SI WA ISOBEL 1996-01-27 00:00:00 TS -12.6000 123.600 main 246 246 O___________O_ jtwc_sh SH111996 -12.6000 123.600 15 -1 -12.6000 123.600 TC 15 4 299
1996025S14125 1996 6 SI WA ISOBEL 1996-01-27 01:00:00 TS -12.5532 123.464 25 1000 bom main 246 235 P_____O_____P_ SH111996 -12.5724 123.547 15 -1 -12.4000 122.800 20 25 1000 1.50000 53 3 5 -12.5724 123.547 TC 15 7 287
1996025S14125 1996 6 SI WA ISOBEL 1996-01-27 03:00:00 TS -12.4954 123.250 main 237 237 P_____P_____P_ SH111996 -12.5275 123.422 17 -1 -12.3668 122.559 20 25 1000 53 -12.5275 123.422 TC 17 6 281
1996025S14125 1996 6 SI WA ISOBEL 1996-01-27 06:00:00 TS -12.4500 122.930 main 244 233 O_____P_____O_ jtwc_sh SH111996 -12.5000 123.200 20 -1 -12.3167 122.210 20 25 1000 53 -12.5000 123.200 TC 20 7 277
1996025S14125 1996 6 SI WA ISOBEL 1996-01-27 07:00:00 TS -12.4368 122.787 25 1000 bom main 236 236 P_____O_____P_ SH111996 -12.5052 123.130 20 -1 -12.3000 122.100 20 25 1000 2.00000 53 3 5 -12.5052 123.130 TC 20 6 271
1996025S14125 1996 6 SI WA ISOBEL 1996-01-27 09:00:00 TS -12.4455 122.617 main 244 244 P_____P_____P_ SH111996 -12.5349 122.980 22 -1 -12.2666 121.892 20 25 1000 53 -12.5349 122.980 TC 22 5 265
1996025S14125 1996 6 SI WA ISOBEL 1996-01-27 12:00:00 TS -12.4722 122.332 main 269 269 O_____P_____O_ jtwc_sh SH111996 -12.6000 122.700 25 -1 -12.2166 121.597 20 25 1000 53 -12.6000 122.700 TC 25 6 265
1996025S14125 1996 6 SI WA ISOBEL 1996-01-27 13:00:00 TS -12.4795 122.224 25 1000 bom main 274 274 P_____O_____P_ SH111996 -12.6193 122.586 25 -1 -12.2000 121.500 20 25 1000 2.00000 53 3 5 -12.6193 122.586 TC 25 7 266
1996025S14125 1996 6 SI WA ISOBEL 1996-01-27 15:00:00 TS -12.4939 121.989 main 286 274 P_____P_____P_ SH111996 -12.6575 122.330 27 -1 -12.1666 121.305 20 25 1000 53 -12.6575 122.330 TC 27 7 268
1996025S14125 1996 6 SI WA ISOBEL 1996-01-27 18:00:00 TS -12.5055 121.602 main 274 269 O_____P_____O_ jtwc_sh SH111996 -12.7000 121.900 30 -1 -12.1166 121.006 20 25 1000 53 -12.7000 121.900 TC 30 8 269
1996025S14125 1996 6 SI WA ISOBEL 1996-01-27 19:00:00 TS -12.5038 121.470 25 1000 bom main 269 257 P_____O_____P_ SH111996 -12.7057 121.756 30 -1 -12.1000 120.900 20 25 1000 2.00000 53 3 5 -12.7057 121.756 TC 30 8 273
1996025S14125 1996 6 SI WA ISOBEL 1996-01-27 21:00:00 TS -12.4864 121.199 main 257 248 P_____P_____P_ SH111996 -12.7075 121.457 30 -1 -12.0444 120.681 20 25 1000 61 -12.7075 121.457 TC 30 8 273
1996025S14125 1996 6 SI WA ISOBEL 1996-01-28 00:00:00 TS -12.4644 120.776 main 248 246 O_____P_____O_ jtwc_sh SH111996 -12.7000 121.000 30 -1 -11.9933 120.327 20 25 1000 75 -12.7000 121.000 TC 30 8 272
1996025S14125 1996 6 SI WA ISOBEL 1996-01-28 01:00:00 TS -12.4649 120.633 25 1000 bom main 246 246 P_____O_____P_ SH111996 -12.6973 120.850 30 -1 -12.0000 120.200 20 25 1000 2.00000 80 3 5 -12.6973 120.850 TC 30 8 268
1996025S14125 1996 6 SI WA ISOBEL 1996-01-28 03:00:00 TS -12.4793 120.342 main 247 247 P_____P_____P_ SH111996 -12.6924 120.550 30 -1 -12.0530 119.927 20 25 1000 80 -12.6924 120.550 TC 30 8 266
1996025S14125 1996 6 SI WA ISOBEL 1996-01-28 04:00:00 TS -12.4947 120.200 25 1000 bom main 248 248 P_____O_____P_ SH111996 -12.6920 120.400 30 -1 -12.1000 119.800 20 25 1000 2.00000 80 3 5 -12.6920 120.400 TC 30 8 261
1996025S14125 1996 6 SI WA ISOBEL 1996-01-28 06:00:00 TS -12.5426 119.937 main 254 254 O_____P_____O_ jtwc_sh SH111996 -12.7000 120.100 30 -1 -12.2279 119.610 20 25 1000 80 -12.7000 120.100 TC 30 8 259
1996025S14125 1996 6 SI WA ISOBEL 1996-01-28 07:00:00 TS -12.5739 119.800 25 1000 bom main 268 268 P_____O_____P_ SH111996 -12.7109 119.950 30 -1 -12.3000 119.500 20 25 1000 2.00000 80 3 5 -12.7109 119.950 TC 30 9 258
1996025S14125 1996 6 SI WA ISOBEL 1996-01-28 09:00:00 TS -12.6394 119.490 main 279 279 P_____P_____P_ SH111996 -12.7424 119.650 32 -1 -12.4334 119.170 20 25 1000 80 -12.7424 119.650 TC 32 9 258
1996025S14125 1996 6 SI WA ISOBEL 1996-01-28 10:00:00 TS -12.6741 119.333 25 1000 bom main 296 296 P_____O_____P_ SH111996 -12.7612 119.500 33 -1 -12.5000 119.000 20 25 1000 2.00000 80 3 5 -12.7612 119.500 TC 33 9 257
1996025S14125 1996 6 SI WA ISOBEL 1996-01-28 12:00:00 TS -12.7418 119.043 main 309 309 O_____P_____O_ jtwc_sh SH111996 -12.8000 119.200 35 0 -12.6254 118.728 20 25 1000 80 -12.8000 119.200 TC 35 9 256
1996025S14125 1996 6 SI WA ISOBEL 1996-01-28 13:00:00 TS -12.7760 118.900 25 1000 bom main 323 323 P_____O_____P_ SH111996 -12.8140 119.050 35 0 -12.7000 118.600 20 25 1000 2.00000 80 3 5 -12.8140 119.050 TC 35 9 254
1996025S14125 1996 6 SI WA ISOBEL 1996-01-28 15:00:00 TS -12.8598 118.611 main 349 349 P_____P_____P_ SH111996 -12.8424 118.750 37 0 -12.8946 118.333 20 25 1000 97 -12.8424 118.750 TC 37 9 253
1996025S14125 1996 6 SI WA ISOBEL 1996-01-28 16:00:00 TS -12.9058 118.467 25 1000 bom main 354 360 P_____O_____P_ SH111996 -12.8587 118.600 38 0 -13.0000 118.200 20 25 1000 2.00000 107 3 5 -12.8587 118.600 TC 38 9 251
1996025S14125 1996 6 SI WA ISOBEL 1996-01-28 18:00:00 TS -13.0026 118.178 main 381 381 O_____P_____O_ jtwc_sh SH111996 -12.9000 118.300 40 0 -13.2079 117.933 20 25 1000 107 -12.9000 118.300 TC 40 9 252
1996025S14125 1996 6 SI WA ISOBEL 1996-01-28 19:00:00 TS -13.0465 118.032 25 1000 bom main 388 399 P_____O_____P_ SH111996 -12.9197 118.147 40 0 -13.3000 117.800 20 25 1000 2.00000 107 3 5 -12.9197 118.147 TC 40 9 254
1996025S14125 1996 6 SI WA ISOBEL 1996-01-28 21:00:00 TS -13.1262 117.739 main 410 410 P_____P_____P_ SH111996 -12.9700 117.842 42 0 -13.4388 117.533 20 28 998 107 -12.9700 117.842 TC 42 9 254
1996025S14125 1996 6 SI WA ISOBEL 1996-01-28 22:00:00 TS -13.1694 117.595 30 998 bom main 424 424 P_____O_____P_ SH111996 -13.0042 117.692 43 0 -13.5000 117.400 20 30 998 2.50000 107 3 5 -13.0042 117.692 TC 43 9 250
1996025S14125 1996 6 SI WA ISOBEL 1996-01-29 00:00:00 TS -13.2778 117.308 main 448 448 O_____P_____O_ jtwc_sh SH111996 -13.1000 117.400 45 0 -13.6333 117.125 20 30 998 107 -13.1000 117.400 TC 45 9 247
1996025S14125 1996 6 SI WA ISOBEL 1996-01-29 01:00:00 TS -13.3459 117.167 30 998 bom main 453 468 P_____O_____P_ SH111996 -13.1688 117.251 45 0 -13.7000 117.000 20 30 998 2.50000 107 3 5 -13.1688 117.251 TC 45 9 240
1996025S14125 1996 6 SI WA ISOBEL 1996-01-29 03:00:00 TS -13.5037 116.907 main 488 488 P_____P_____P_ SH111996 -13.3350 116.963 45 0 -13.8412 116.795 20 30 998 124 -13.3350 116.963 TC 45 9 237
1996025S14125 1996 6 SI WA ISOBEL 1996-01-29 04:00:00 TS -13.5833 116.786 30 998 bom main 503 503 P_____O_____P_ SH111996 -13.4250 116.830 45 0 -13.9000 116.700 20 30 998 2.50000 134 3 5 -13.4250 116.830 TC 45 8 237
1996025S14125 1996 6 SI WA ISOBEL 1996-01-29 06:00:00 TS -13.7214 116.564 main 517 517 O_____P_____O_ jtwc_sh SH111996 -13.6000 116.600 45 0 -13.9642 116.492 20 33 996 134 -13.6000 116.600 TC 45 7 237
1996025S14125 1996 6 SI WA ISOBEL 1996-01-29 07:00:00 TS -13.7815 116.470 35 995 bom main 529 529 P_____O_____P_ SH111996 -13.6723 116.505 45 0 -14.0000 116.400 30 35 995 3.00000 134 3 5 -13.6723 116.505 TC 45 6 230
1996025S14125 1996 6 SI WA ISOBEL 1996-01-29 09:00:00 TS -13.9221 116.318 main 542 542 P_____P_____P_ SH111996 -13.8074 116.355 45 0 -14.1516 116.245 30 35 995 134 -13.8074 116.355 TC 45 6 226
1996025S14125 1996 6 SI WA ISOBEL 1996-01-29 10:00:00 TS -13.9814 116.264 35 995 bom main 554 554 P_____O_____P_ SH111996 -13.8720 116.296 45 0 -14.2000 116.200 30 35 995 3.00000 134 3 5 -13.8720 116.296 TC 45 3 223
1996025S14125 1996 6 SI WA ISOBEL 1996-01-29 12:00:00 TS -14.0472 116.196 main 555 555 O_____P_____O_ jtwc_sh SH111996 -14.0000 116.200 45 0 -14.1417 116.189 30 35 995 134 -14.0000 116.200 TC 45 3 220
1996025S14125 1996 6 SI WA ISOBEL 1996-01-29 13:00:00 TS -14.0813 116.170 35 995 bom main 566 566 P_____O_____P_ SH111996 -14.0719 116.155 45 0 -14.1000 116.200 30 35 995 3.00000 134 3 5 -14.0719 116.155 TC 45 3 207
1996025S14125 1996 6 SI WA ISOBEL 1996-01-29 15:00:00 TS -14.1748 116.123 main 579 579 P_____P_____P_ SH111996 -14.2150 116.085 45 0 -14.0946 116.200 30 35 995 134 -14.2150 116.085 TC 45 3 208
1996025S14125 1996 6 SI WA ISOBEL 1996-01-29 16:00:00 TS -14.2216 116.104 35 995 bom main 579 579 P_____O_____P_ SH111996 -14.2824 116.056 45 0 -14.1000 116.200 30 35 995 3.00000 134 3 5 -14.2824 116.056 TC 45 3 204
1996025S14125 1996 6 SI WA ISOBEL 1996-01-29 18:00:00 TS -14.3000 116.067 main 590 590 O_____P_____O_ jtwc_sh SH111996 -14.4000 116.000 45 0 -14.1000 116.200 30 35 995 134 -14.4000 116.000 TC 45 2 206
1996025S14125 1996 6 SI WA ISOBEL 1996-01-29 19:00:00 TS -14.3281 116.044 35 995 bom main 592 592 P_____O_____P_ SH111996 -14.4421 115.967 45 0 -14.1000 116.200 30 35 995 3.00000 134 3 5 -14.4421 115.967 TC 45 2 219
1996025S14125 1996 6 SI WA ISOBEL 1996-01-29 21:00:00 TS -14.3690 116.003 main 603 603 P_____P_____P_ SH111996 -14.5075 115.900 45 0 -14.0921 116.208 30 35 995 134 -14.5075 115.900 TC 45 2 230
1996025S14125 1996 6 SI WA ISOBEL 1996-01-29 22:00:00 TS -14.3909 115.978 35 995 bom main 603 603 P_____O_____P_ SH111996 -14.5363 115.867 45 0 -14.1000 116.200 30 35 995 3.00000 134 3 5 -14.5363 115.867 TC 45 2 223
1996025S14125 1996 6 SI WA ISOBEL 1996-01-30 00:00:00 TS -14.4511 115.918 main 616 616 O_____P_____O_ jtwc_sh SH111996 -14.6000 115.800 45 0 -14.1533 116.155 30 35 995 134 -14.6000 115.800 TC 45 3 222
1996025S14125 1996 6 SI WA ISOBEL 1996-01-30 01:00:00 TS -14.4962 115.878 35 995 bom main 616 616 P_____O_____P_ SH111996 -14.6443 115.767 45 0 -14.2000 116.100 30 35 995 3.00000 134 3 5 -14.6443 115.767 TC 45 4 225
1996025S14125 1996 6 SI WA ISOBEL 1996-01-30 03:00:00 TS -14.5990 115.768 main 629 629 P_____P_____P_ SH111996 -14.7425 115.700 45 0 -14.3121 115.903 30 35 995 134 -14.7425 115.700 TC 45 5 225
1996025S14125 1996 6 SI WA ISOBEL 1996-01-30 04:00:00 TS -14.6630 115.711 35 995 bom main 642 642 P_____O_____P_ SH111996 -14.7946 115.667 45 0 -14.4000 115.800 30 35 995 3.00000 134 3 5 -14.7946 115.667 TC 45 5 213
1996025S14125 1996 6 SI WA ISOBEL 1996-01-30 06:00:00 TS -14.8265 115.615 main 655 648 O_____P_____O_ jtwc_sh SH111996 -14.9000 115.600 45 0 -14.6795 115.645 30 35 995 134 -14.9000 115.600 TC 45 5 209
1996025S14125 1996 6 SI WA ISOBEL 1996-01-30 07:00:00 TS -14.9000 115.576 35 995 bom main 648 639 P_____O_____P_ SH111996 -14.9500 115.564 45 0 -14.8000 115.600 30 35 995 3.00000 134 3 5 -14.9500 115.564 TC 45 4 209
1996025S14125 1996 6 SI WA ISOBEL 1996-01-30 09:00:00 TS -14.9891 115.525 main 639 639 P_____P_____P_ SH111996 -15.0500 115.493 45 0 -14.8672 115.589 30 35 995 134 -15.0500 115.493 TC 45 3 206
1996025S14125 1996 6 SI WA ISOBEL 1996-01-30 10:00:00 TS -15.0333 115.506 35 995 bom main 639 617 P_____O_____P_ SH111996 -15.1000 115.459 45 0 -14.9000 115.600 30 35 995 3.00000 134 3 5 -15.1000 115.459 TC 45 4 198
1996025S14125 1996 6 SI WA ISOBEL 1996-01-30 12:00:00 TS -15.1657 115.469 main 617 617 O_____P_____O_ jtwc_sh SH111996 -15.2000 115.400 45 0 -15.0970 115.608 30 35 995 134 -15.2000 115.400 TC 45 4 195
1996025S14125 1996 6 SI WA ISOBEL 1996-01-30 13:00:00 TS -15.2316 115.453 35 995 bom main 617 608 P_____O_____P_ SH111996 -15.2474 115.380 44 0 -15.2000 115.600 30 35 995 3.00000 134 3 5 -15.2474 115.380 TC 44 4 199
1996025S14125 1996 6 SI WA ISOBEL 1996-01-30 15:00:00 TS -15.3412 115.413 main 608 597 P_____P_____P_ SH111996 -15.3425 115.350 42 0 -15.3388 115.539 30 35 995 134 -15.3425 115.350 TC 42 4 199
1996025S14125 1996 6 SI WA ISOBEL 1996-01-30 16:00:00 TS -15.3947 115.391 35 995 bom main 597 586 P_____O_____P_ SH111996 -15.3921 115.336 41 0 -15.4000 115.500 30 35 995 3.00000 134 3 5 -15.3921 115.336 TC 41 4 203
1996025S14125 1996 6 SI WA ISOBEL 1996-01-30 18:00:00 TS -15.5085 115.344 main 589 578 O_____P_____O_ jtwc_sh SH111996 -15.5000 115.300 40 0 -15.5254 115.433 30 35 995 134 -15.5000 115.300 TC 40 4 205
1996025S14125 1996 6 SI WA ISOBEL 1996-01-30 19:00:00 TS -15.5740 115.313 35 995 bom main 578 567 P_____O_____P_ SH111996 -15.5610 115.270 40 0 -15.6000 115.400 30 35 995 3.00000 134 3 5 -15.5610 115.270 TC 40 5 201
1996025S14125 1996 6 SI WA ISOBEL 1996-01-30 21:00:00 TS -15.7265 115.250 main 570 559 P_____P_____P_ SH111996 -15.6925 115.200 40 0 -15.7945 115.349 30 35 995 134 -15.6925 115.200 TC 40 5 203
1996025S14125 1996 6 SI WA ISOBEL 1996-01-30 22:00:00 TS -15.8075 115.209 35 995 bom main 559 541 P_____O_____P_ SH111996 -15.7612 115.164 40 0 -15.9000 115.300 30 35 995 3.00000 134 3 5 -15.7612 115.164 TC 40 6 211
1996025S14125 1996 6 SI WA ISOBEL 1996-01-31 00:00:00 TS -15.9746 115.096 main 541 541 O_____P_____O_ jtwc_sh SH111996 -15.9000 115.100 40 0 -16.1237 115.087 30 31 996 134 -15.9000 115.100 TC 40 6 211
1996025S14125 1996 6 SI WA ISOBEL 1996-01-31 01:00:00 TS -16.0462 115.055 30 998 bom main 541 531 P_____O_____P_ SH111996 -15.9693 115.083 39 0 -16.2000 115.000 20 30 998 2.50000 134 3 5 -15.9693 115.083 TC 39 4 200
1996025S14125 1996 6 SI WA ISOBEL 1996-01-31 03:00:00 TS -16.1411 115.035 main 534 523 P_____P_____P_ SH111996 -16.1075 115.057 37 0 -16.2084 114.992 20 30 998 116 -16.1075 115.057 TC 37 3 183
1996025S14125 1996 6 SI WA ISOBEL 1996-01-31 04:00:00 TS -16.1830 115.029 30 998 bom main 523 513 P_____O_____P_ SH111996 -16.1745 115.044 36 0 -16.2000 115.000 20 30 998 2.50000 107 3 5 -16.1745 115.044 TC 36 3 203
1996025S14125 1996 6 SI WA ISOBEL 1996-01-31 06:00:00 TS -16.2871 114.980 main 513 513 O_____P_____O_ jtwc_sh SH111996 -16.3000 115.000 35 0 -16.2612 114.939 20 26 999 107 -16.3000 115.000 TC 35 4 209
1996025S14125 1996 6 SI WA ISOBEL 1996-01-31 07:00:00 TS -16.3371 114.941 25 1000 bom main 517 506 P_____O_____P_ SH111996 -16.3557 114.961 34 0 -16.3000 114.900 20 25 1000 2.00000 107 3 5 -16.3557 114.961 TC 34 4 222
1996025S14125 1996 6 SI WA ISOBEL 1996-01-31 09:00:00 TS -16.4272 114.852 main 506 500 P_____P_____P_ SH111996 -16.4575 114.865 32 -1 -16.3667 114.825 20 25 1000 107 -16.4575 114.865 TC 32 4 224
1996025S14125 1996 6 SI WA ISOBEL 1996-01-31 10:00:00 TS -16.4703 114.807 25 1000 bom main 500 500 P_____O_____P_ SH111996 -16.5054 114.811 31 -1 -16.4000 114.800 20 25 1000 2.00000 107 3 5 -16.5054 114.811 TC 31 3 222
1996025S14125 1996 6 SI WA ISOBEL 1996-01-31 12:00:00 TS -16.5529 114.734 main 494 494 O_____P_____O_ jtwc_sh SH111996 -16.6000 114.700 30 -1 -16.4588 114.802 20 25 1000 89 -16.6000 114.700 TC 30 3 220
1996025S14125 1996 6 SI WA ISOBEL 1996-01-31 13:00:00 TS -16.5989 114.698 25 1000 bom main 494 489 P_____O_____P_ SH111996 -16.6483 114.647 29 -1 -16.5000 114.800 20 25 1000 2.00000 80 3 5 -16.6483 114.647 TC 29 4 218
1996025S14125 1996 6 SI WA ISOBEL 1996-01-31 15:00:00 TS -16.6997 114.619 main 489 489 P_____P_____P_ SH111996 -16.7475 114.545 27 -1 -16.6279 114.731 20 25 1001 80 -16.7475 114.545 TC 27 4 212
1996025S14125 1996 6 SI WA ISOBEL 1996-01-31 16:00:00 TS -16.7490 114.598 25 1002 bom main 489 479 P_____O_____P_ SH111996 -16.7980 114.496 26 -1 -16.7000 114.700 20 25 1002 1.50000 80 3 5 -16.7980 114.496 TC 26 3 190
1996025S14125 1996 6 SI WA ISOBEL 1996-01-31 18:00:00 TS -16.8556 114.596 main 469 464 O_____P_____O_ jtwc_sh SH111996 -16.9000 114.400 25 -1 -16.8333 114.695 20 25 1002 80 -16.9000 114.400 TC 25 4 146
1996025S14125 1996 6 SI WA ISOBEL 1996-01-31 19:00:00 NR -16.9000 114.700 25 1002 bom main 464 454 ______O_______ SH111996 -1 -16.9000 114.700 20 25 1002 1.50000 80 3 5 TC 4 150
1996025S14125 1996 6 SI WA ISOBEL 1996-01-31 21:00:00 NR -17.0333 114.708 main 454 444 ______P_______ SH111996 -1 -17.0333 114.708 20 25 1002 62 TC 4 172
1996025S14125 1996 6 SI WA ISOBEL 1996-01-31 22:00:00 NR -17.1000 114.700 25 1002 bom main 444 434 ______O_______ SH111996 -1 -17.1000 114.700 20 25 1002 1.50000 53 3 5 TC 4 200
1996025S14125 1996 6 SI WA ISOBEL 1996-02-01 00:00:00 NR -17.2333 114.641 main 439 430 ______P_______ -1 -17.2333 114.641 20 25 1002 53 4 207
1996025S14125 1996 6 SI WA ISOBEL 1996-02-01 01:00:00 NR -17.3000 114.600 25 1002 bom main 430 ______O_______ -1 -17.3000 114.600 20 25 1002 1.50000 53 3 5 5 213

About IBTrACS Database

This database is a web-friendly format of International Best Track Archive for Climate Stewardship (IBTrACS), a global best track data archive curated by NOAA dating back to 1842.

Updated: 2021-12-03